Pagrindinis puslapis
METAR-TAF:

METAR-TAF

Oro uostai :

Brunėjus, Brunėjus

platuma: 04-56N, ilguma: 114-56E, Aukštis: 22 m

Dabartinis oras

Ataskaita buvo paskelbta 38 minutes, ne 19:30 UTC
Vėjas 3 kt iš Pietų/Pietryčių
Temperatūra 26°C
Drėgmė 100%
Slėgis
Matomumas: 3000 m
Išsisklaidę debesys ne aukštis 1400 ft
Su prošvaistėmis ne aukštis 28000 ft
rūkana

METAR: WBSB 201930Z 15003KT 3000 BR SCT014 BKN280 26/26 NOSIG

Laikas: 04:08 (20:08 UTC)

Prognozė

Ataskaita buvo paskelbta 3 valandos ir 18 minutes, ne 16:50 UTC
Prognozė galioja nuo 20 metu 18 UTC su 22 metu 00 UTC
Vėjas 4 kt iš Šiaurės Rytų
Matomumas: 3000 m
Mažai debesys ne aukštis 1500 ft
migla
Tapsmas
nuo 21 metu 02 UTC su 21 metu 04 UTC
Vėjas 10 kt iš Šiaurės
Išsisklaidę debesys ne aukštis 1600 ft

TAF: WBSB 201650Z 2018/2200 04004KT 3000 HZ FEW015 BECMG 2102/2104 01010KT SCT016

Orai ataskaitas ir orų prognozės (METAR, TAF).

turimą stotys yra geltonos ir raudonos taškus žemėlapyje.

Perkelti pele per norėdami pamatyti stoties vardą.

Tada spustelėkite, norėdami matyti oro stebėjimo ir prognozės.

Norėdami pakeisti žemėlapį: spustelėkite ant žalios mygtukų su juodo kryžiaus žemyn,; žalią mygtuką su brūkšneliu, jei norite nutolinti; arba žalių rodyklių gretimoms žemėlapius.


METAR-TAF: